AAY2968 KMYR-KMDT
Flight info
| Callsign | AAY2968 |
|---|---|
| Flight time | 1h 9m |
| Altitude | 36000 |
| Route | SMPRR RDU FAK COURG BAMMY T299 HAR |
| Aircraft | A320/M-VGDW/C |
Departure
| Time | 2026-05-07 21:12 |
|---|---|
| Airport | Myrtle Beach International Airport (KMYR) |
Arrival
| Time | 2026-05-07 22:21 |
|---|---|
| Airport | Harrisburg International Airport (KMDT) |
| Time | Latitude | Longitude | Altitude | Speed | Heading |
|---|---|---|---|---|---|
| 2026-05-07 21:02 | 33.67983 | -78.92384 | 41 ft | 0 kts | 348° |
| 2026-05-07 21:03 | 33.67969 | -78.92381 | 30 ft | 2 kts | 348° |
| 2026-05-07 21:04 | 33.67953 | -78.92377 | 30 ft | 2 kts | 347° |
| 2026-05-07 21:04 | 33.67937 | -78.92372 | 31 ft | 2 kts | 345° |
| 2026-05-07 21:04 | 33.67921 | -78.92367 | 29 ft | 2 kts | 333° |
| 2026-05-07 21:04 | 33.67911 | -78.92356 | 29 ft | 1 kts | 255° |
| 2026-05-07 21:05 | 33.67911 | -78.92354 | 29 ft | 0 kts | 255° |
| 2026-05-07 21:06 | 33.67907 | -78.92375 | 32 ft | 11 kts | 256° |
| 2026-05-07 21:06 | 33.67889 | -78.92484 | 32 ft | 14 kts | 261° |
| 2026-05-07 21:06 | 33.67878 | -78.92588 | 32 ft | 9 kts | 293° |
| 2026-05-07 21:06 | 33.67909 | -78.92615 | 32 ft | 8 kts | 342° |
| 2026-05-07 21:07 | 33.67959 | -78.92625 | 32 ft | 7 kts | 349° |
| 2026-05-07 21:07 | 33.68016 | -78.92639 | 32 ft | 14 kts | 349° |
| 2026-05-07 21:07 | 33.68137 | -78.92668 | 32 ft | 18 kts | 348° |
| 2026-05-07 21:07 | 33.68286 | -78.92704 | 30 ft | 15 kts | 348° |
| 2026-05-07 21:08 | 33.68354 | -78.92721 | 32 ft | 14 kts | 348° |
| 2026-05-07 21:08 | 33.68446 | -78.92745 | 32 ft | 13 kts | 349° |
| 2026-05-07 21:08 | 33.68540 | -78.92767 | 32 ft | 16 kts | 348° |
| 2026-05-07 21:08 | 33.68646 | -78.92794 | 32 ft | 16 kts | 347° |
| 2026-05-07 21:09 | 33.68756 | -78.92823 | 32 ft | 16 kts | 349° |
| 2026-05-07 21:09 | 33.68857 | -78.92846 | 32 ft | 14 kts | 349° |
| 2026-05-07 21:09 | 33.68948 | -78.92859 | 32 ft | 13 kts | 4° |
| 2026-05-07 21:09 | 33.69030 | -78.92849 | 32 ft | 11 kts | 354° |
| 2026-05-07 21:10 | 33.69117 | -78.92870 | 32 ft | 20 kts | 347° |
| 2026-05-07 21:10 | 33.69250 | -78.92903 | 32 ft | 14 kts | 346° |
| 2026-05-07 21:10 | 33.69263 | -78.92998 | 32 ft | 13 kts | 256° |
| 2026-05-07 21:10 | 33.69241 | -78.93107 | 33 ft | 13 kts | 255° |
| 2026-05-07 21:11 | 33.69164 | -78.93129 | 34 ft | 13 kts | 167° |
| 2026-05-07 21:11 | 33.69014 | -78.93091 | 35 ft | 46 kts | 169° |
| 2026-05-07 21:11 | 33.67502 | -78.92710 | 53 ft | 162 kts | 171° |
| 2026-05-07 21:12 | 33.66434 | -78.92416 | 783 ft | 154 kts | 178° |
| 2026-05-07 21:12 | 33.65399 | -78.92156 | 1512 ft | 154 kts | 179° |
| 2026-05-07 21:12 | 33.64351 | -78.91698 | 2043 ft | 179 kts | 151° |
| 2026-05-07 21:12 | 33.63657 | -78.90289 | 2380 ft | 220 kts | 101° |
| 2026-05-07 21:13 | 33.63946 | -78.88415 | 2684 ft | 241 kts | 54° |
| 2026-05-07 21:13 | 33.65212 | -78.87106 | 3025 ft | 246 kts | 10° |
| 2026-05-07 21:13 | 33.66914 | -78.86869 | 3452 ft | 253 kts | 347° |
| 2026-05-07 21:13 | 33.68698 | -78.87115 | 4170 ft | 261 kts | 342° |
| 2026-05-07 21:14 | 33.70516 | -78.87419 | 5139 ft | 264 kts | 342° |
| 2026-05-07 21:14 | 33.72327 | -78.87728 | 6053 ft | 268 kts | 343° |
| 2026-05-07 21:14 | 33.74210 | -78.87993 | 6912 ft | 276 kts | 347° |
| 2026-05-07 21:14 | 33.76169 | -78.88008 | 7792 ft | 286 kts | 352° |
| 2026-05-07 21:15 | 33.78175 | -78.87887 | 8704 ft | 292 kts | 354° |
| 2026-05-07 21:15 | 33.80226 | -78.87721 | 9596 ft | 298 kts | 354° |
| 2026-05-07 21:15 | 33.82317 | -78.87553 | 10286 ft | 307 kts | 354° |
| 2026-05-07 21:15 | 33.84503 | -78.87406 | 10560 ft | 330 kts | 354° |
| 2026-05-07 21:16 | 33.86886 | -78.87273 | 10796 ft | 353 kts | 354° |
| 2026-05-07 21:16 | 33.89414 | -78.87141 | 11105 ft | 371 kts | 354° |
| 2026-05-07 21:16 | 33.92027 | -78.86996 | 11721 ft | 377 kts | 354° |
| 2026-05-07 21:16 | 33.94675 | -78.86843 | 12438 ft | 381 kts | 354° |
| 2026-05-07 21:17 | 33.97310 | -78.86692 | 13164 ft | 385 kts | 354° |
| 2026-05-07 21:17 | 33.99996 | -78.86545 | 13874 ft | 387 kts | 354° |
| 2026-05-07 21:17 | 34.02698 | -78.86401 | 14487 ft | 390 kts | 354° |
| 2026-05-07 21:17 | 34.05424 | -78.86258 | 15099 ft | 393 kts | 353° |
| 2026-05-07 21:18 | 34.08177 | -78.86112 | 15699 ft | 397 kts | 353° |
| 2026-05-07 21:18 | 34.10954 | -78.85969 | 16301 ft | 400 kts | 353° |
| 2026-05-07 21:18 | 34.13744 | -78.85827 | 16871 ft | 403 kts | 353° |
| 2026-05-07 21:18 | 34.16565 | -78.85682 | 17443 ft | 406 kts | 352° |
| 2026-05-07 21:19 | 34.19402 | -78.85533 | 18015 ft | 409 kts | 352° |
| 2026-05-07 21:19 | 34.22227 | -78.85384 | 18507 ft | 413 kts | 352° |
| 2026-05-07 21:19 | 34.25113 | -78.85232 | 18987 ft | 417 kts | 352° |
| 2026-05-07 21:19 | 34.28034 | -78.85080 | 19439 ft | 421 kts | 352° |
| 2026-05-07 21:20 | 34.30981 | -78.84925 | 19913 ft | 424 kts | 352° |
| 2026-05-07 21:20 | 34.33950 | -78.84768 | 20385 ft | 428 kts | 352° |
| 2026-05-07 21:20 | 34.36937 | -78.84610 | 20839 ft | 431 kts | 352° |
| 2026-05-07 21:20 | 34.39914 | -78.84453 | 21282 ft | 434 kts | 352° |
| 2026-05-07 21:21 | 34.42950 | -78.84292 | 21739 ft | 437 kts | 352° |
| 2026-05-07 21:21 | 34.46010 | -78.84134 | 22170 ft | 440 kts | 351° |
| 2026-05-07 21:21 | 34.49092 | -78.83996 | 22681 ft | 443 kts | 350° |
| 2026-05-07 21:21 | 34.52189 | -78.83875 | 23133 ft | 446 kts | 349° |
| 2026-05-07 21:22 | 34.55267 | -78.83761 | 23532 ft | 449 kts | 349° |
| 2026-05-07 21:22 | 34.58413 | -78.83643 | 23902 ft | 452 kts | 349° |
| 2026-05-07 21:22 | 34.61567 | -78.83523 | 24275 ft | 454 kts | 349° |
| 2026-05-07 21:22 | 34.64739 | -78.83400 | 24676 ft | 456 kts | 349° |
| 2026-05-07 21:23 | 34.67920 | -78.83273 | 25035 ft | 458 kts | 349° |
| 2026-05-07 21:23 | 34.71079 | -78.83144 | 25384 ft | 460 kts | 349° |
| 2026-05-07 21:23 | 34.74287 | -78.83013 | 25770 ft | 462 kts | 349° |
| 2026-05-07 21:23 | 34.77514 | -78.82881 | 26082 ft | 464 kts | 349° |
| 2026-05-07 21:24 | 34.80764 | -78.82748 | 26395 ft | 466 kts | 348° |
| 2026-05-07 21:24 | 34.84018 | -78.82613 | 26699 ft | 468 kts | 349° |
| 2026-05-07 21:24 | 34.87244 | -78.82478 | 26998 ft | 470 kts | 349° |
| 2026-05-07 21:24 | 34.90528 | -78.82339 | 27303 ft | 472 kts | 349° |
| 2026-05-07 21:25 | 34.93830 | -78.82201 | 27617 ft | 474 kts | 349° |
| 2026-05-07 21:25 | 34.97140 | -78.82064 | 27922 ft | 476 kts | 349° |
| 2026-05-07 21:25 | 35.00465 | -78.81927 | 28271 ft | 477 kts | 348° |
| 2026-05-07 21:25 | 35.03735 | -78.81794 | 28687 ft | 476 kts | 348° |
| 2026-05-07 21:26 | 35.07045 | -78.81655 | 29129 ft | 474 kts | 348° |
| 2026-05-07 21:26 | 35.10343 | -78.81514 | 29574 ft | 473 kts | 348° |
| 2026-05-07 21:26 | 35.13639 | -78.81376 | 29987 ft | 472 kts | 348° |
| 2026-05-07 21:26 | 35.16926 | -78.81240 | 30342 ft | 471 kts | 348° |
| 2026-05-07 21:27 | 35.20210 | -78.81109 | 30658 ft | 471 kts | 348° |
| 2026-05-07 21:27 | 35.23447 | -78.80979 | 31002 ft | 471 kts | 348° |
| 2026-05-07 21:27 | 35.26731 | -78.80843 | 31316 ft | 471 kts | 347° |
| 2026-05-07 21:27 | 35.30018 | -78.80708 | 31638 ft | 472 kts | 347° |
| 2026-05-07 21:28 | 35.33308 | -78.80571 | 31951 ft | 472 kts | 347° |
| 2026-05-07 21:28 | 35.36557 | -78.80439 | 32268 ft | 472 kts | 347° |
| 2026-05-07 21:28 | 35.39849 | -78.80306 | 32576 ft | 472 kts | 347° |
| 2026-05-07 21:28 | 35.43146 | -78.80170 | 32905 ft | 473 kts | 347° |
| 2026-05-07 21:29 | 35.46444 | -78.80034 | 33236 ft | 473 kts | 347° |
| 2026-05-07 21:29 | 35.49702 | -78.79901 | 33556 ft | 473 kts | 347° |
| 2026-05-07 21:29 | 35.52996 | -78.79768 | 33860 ft | 473 kts | 347° |
| 2026-05-07 21:29 | 35.56298 | -78.79630 | 34139 ft | 473 kts | 347° |
| 2026-05-07 21:30 | 35.59599 | -78.79490 | 34442 ft | 473 kts | 347° |
| 2026-05-07 21:30 | 35.62893 | -78.79351 | 34758 ft | 472 kts | 347° |
| 2026-05-07 21:30 | 35.66140 | -78.79215 | 35071 ft | 471 kts | 347° |
| 2026-05-07 21:30 | 35.69420 | -78.79077 | 35364 ft | 470 kts | 347° |
| 2026-05-07 21:31 | 35.72689 | -78.78940 | 35709 ft | 469 kts | 346° |
| 2026-05-07 21:31 | 35.75909 | -78.78804 | 35870 ft | 468 kts | 346° |
| 2026-05-07 21:31 | 35.82415 | -78.78535 | 35889 ft | 468 kts | 346° |
| 2026-05-07 21:32 | 35.85697 | -78.78237 | 35899 ft | 482 kts | 354° |
| 2026-05-07 21:32 | 35.89039 | -78.77240 | 35915 ft | 504 kts | 6° |
| 2026-05-07 21:32 | 35.92337 | -78.75519 | 35917 ft | 517 kts | 11° |
| 2026-05-07 21:32 | 35.95619 | -78.73655 | 35911 ft | 518 kts | 12° |
| 2026-05-07 21:33 | 36.02132 | -78.69946 | 35911 ft | 517 kts | 11° |
| 2026-05-07 21:33 | 36.08688 | -78.66220 | 35890 ft | 517 kts | 11° |
| 2026-05-07 21:34 | 36.15195 | -78.62531 | 35906 ft | 517 kts | 11° |
| 2026-05-07 21:34 | 36.21770 | -78.58798 | 35965 ft | 518 kts | 11° |
| 2026-05-07 21:35 | 36.28324 | -78.55073 | 35930 ft | 518 kts | 11° |
| 2026-05-07 21:35 | 36.34879 | -78.51342 | 35923 ft | 518 kts | 11° |
| 2026-05-07 21:36 | 36.41397 | -78.47621 | 35923 ft | 519 kts | 11° |
| 2026-05-07 21:36 | 36.47955 | -78.43860 | 35958 ft | 519 kts | 11° |
| 2026-05-07 21:37 | 36.54523 | -78.40086 | 35940 ft | 520 kts | 11° |
| 2026-05-07 21:37 | 36.61087 | -78.36313 | 35931 ft | 520 kts | 11° |
| 2026-05-07 21:38 | 36.67664 | -78.32524 | 35977 ft | 521 kts | 11° |
| 2026-05-07 21:38 | 36.74197 | -78.28751 | 35909 ft | 519 kts | 11° |
| 2026-05-07 21:39 | 36.80775 | -78.24960 | 35946 ft | 520 kts | 11° |
| 2026-05-07 21:39 | 36.87315 | -78.21186 | 35942 ft | 521 kts | 11° |
| 2026-05-07 21:40 | 36.93894 | -78.17365 | 35937 ft | 521 kts | 11° |
| 2026-05-07 21:40 | 37.00486 | -78.13518 | 35919 ft | 521 kts | 11° |
| 2026-05-07 21:41 | 37.07073 | -78.09676 | 35917 ft | 521 kts | 11° |
| 2026-05-07 21:41 | 37.13625 | -78.05863 | 35926 ft | 522 kts | 10° |
| 2026-05-07 21:42 | 37.20209 | -78.02017 | 35904 ft | 520 kts | 11° |
| 2026-05-07 21:42 | 37.26750 | -77.98179 | 35917 ft | 521 kts | 11° |
| 2026-05-07 21:43 | 37.33335 | -77.94316 | 35907 ft | 521 kts | 11° |
| 2026-05-07 21:43 | 37.39892 | -77.90470 | 35940 ft | 523 kts | 11° |
| 2026-05-07 21:44 | 37.46501 | -77.86758 | 35935 ft | 509 kts | 3° |
| 2026-05-07 21:44 | 37.49857 | -77.85678 | 35930 ft | 485 kts | 352° |
| 2026-05-07 21:44 | 37.53148 | -77.85307 | 35930 ft | 463 kts | 343° |
| 2026-05-07 21:45 | 37.56286 | -77.85558 | 36019 ft | 442 kts | 334° |
| 2026-05-07 21:45 | 37.59232 | -77.86344 | 35952 ft | 424 kts | 327° |
| 2026-05-07 21:45 | 37.61914 | -77.87562 | 35936 ft | 408 kts | 320° |
| 2026-05-07 21:45 | 37.64530 | -77.88961 | 35930 ft | 409 kts | 321° |
| 2026-05-07 21:46 | 37.69787 | -77.91751 | 35926 ft | 410 kts | 321° |
| 2026-05-07 21:46 | 37.75072 | -77.94537 | 35926 ft | 411 kts | 321° |
| 2026-05-07 21:47 | 37.80360 | -77.97331 | 35941 ft | 411 kts | 321° |
| 2026-05-07 21:47 | 37.85605 | -78.00108 | 35939 ft | 411 kts | 321° |
| 2026-05-07 21:48 | 37.90883 | -78.02914 | 35935 ft | 411 kts | 321° |
| 2026-05-07 21:48 | 37.96166 | -78.05729 | 35935 ft | 411 kts | 321° |
| 2026-05-07 21:49 | 38.01422 | -78.08535 | 35931 ft | 411 kts | 321° |
| 2026-05-07 21:49 | 38.06708 | -78.11353 | 35937 ft | 413 kts | 322° |
| 2026-05-07 21:50 | 38.11981 | -78.14165 | 35907 ft | 413 kts | 322° |
| 2026-05-07 21:50 | 38.17293 | -78.17006 | 35900 ft | 414 kts | 322° |
| 2026-05-07 21:51 | 38.22612 | -78.19859 | 35899 ft | 414 kts | 322° |
| 2026-05-07 21:51 | 38.27933 | -78.22708 | 35900 ft | 414 kts | 322° |
| 2026-05-07 21:52 | 38.33229 | -78.25561 | 35921 ft | 417 kts | 323° |
| 2026-05-07 21:52 | 38.38594 | -78.28454 | 35898 ft | 419 kts | 323° |
| 2026-05-07 21:53 | 38.43972 | -78.31353 | 35883 ft | 420 kts | 323° |
| 2026-05-07 21:53 | 38.48451 | -78.33772 | 35871 ft | 421 kts | 324° |
| 2026-05-07 21:54 | 38.53851 | -78.36696 | 35875 ft | 421 kts | 324° |
| 2026-05-07 21:54 | 38.59245 | -78.39618 | 35879 ft | 420 kts | 324° |
| 2026-05-07 21:55 | 38.64635 | -78.42540 | 35864 ft | 420 kts | 324° |
| 2026-05-07 21:55 | 38.70013 | -78.45468 | 35873 ft | 420 kts | 324° |
| 2026-05-07 21:56 | 38.75378 | -78.48388 | 35866 ft | 420 kts | 324° |
| 2026-05-07 21:56 | 38.80776 | -78.51334 | 35887 ft | 420 kts | 324° |
| 2026-05-07 21:57 | 38.86105 | -78.54237 | 35879 ft | 418 kts | 324° |
| 2026-05-07 21:57 | 38.91456 | -78.57166 | 35877 ft | 417 kts | 324° |
| 2026-05-07 21:58 | 38.96806 | -78.60097 | 35873 ft | 417 kts | 324° |
| 2026-05-07 21:58 | 39.02122 | -78.63012 | 35873 ft | 417 kts | 324° |
| 2026-05-07 21:59 | 39.07470 | -78.65956 | 35911 ft | 417 kts | 324° |
| 2026-05-07 21:59 | 39.12813 | -78.68907 | 35940 ft | 417 kts | 324° |
| 2026-05-07 22:00 | 39.15636 | -78.70013 | 35909 ft | 437 kts | 338° |
| 2026-05-07 22:00 | 39.18768 | -78.70095 | 35903 ft | 467 kts | 355° |
| 2026-05-07 22:00 | 39.21991 | -78.68840 | 35889 ft | 502 kts | 15° |
| 2026-05-07 22:00 | 39.24887 | -78.66223 | 35838 ft | 527 kts | 34° |
| 2026-05-07 22:01 | 39.30006 | -78.59288 | 35864 ft | 538 kts | 41° |
| 2026-05-07 22:01 | 39.34874 | -78.51843 | 35855 ft | 542 kts | 42° |
| 2026-05-07 22:02 | 39.39777 | -78.44440 | 35864 ft | 542 kts | 40° |
| 2026-05-07 22:02 | 39.44668 | -78.36948 | 35767 ft | 547 kts | 44° |
| 2026-05-07 22:03 | 39.47013 | -78.33062 | 34589 ft | 550 kts | 45° |
| 2026-05-07 22:03 | 39.49284 | -78.29132 | 33164 ft | 554 kts | 46° |
| 2026-05-07 22:03 | 39.51566 | -78.25093 | 31872 ft | 552 kts | 46° |
| 2026-05-07 22:03 | 39.53824 | -78.21091 | 30663 ft | 547 kts | 46° |
| 2026-05-07 22:04 | 39.56076 | -78.17142 | 29357 ft | 542 kts | 46° |
| 2026-05-07 22:04 | 39.58335 | -78.13239 | 27949 ft | 536 kts | 46° |
| 2026-05-07 22:04 | 39.60578 | -78.09415 | 26590 ft | 529 kts | 46° |
| 2026-05-07 22:04 | 39.62777 | -78.05696 | 25227 ft | 523 kts | 46° |
| 2026-05-07 22:05 | 39.64988 | -78.01967 | 23981 ft | 518 kts | 47° |
| 2026-05-07 22:05 | 39.67165 | -77.98276 | 22593 ft | 512 kts | 48° |
| 2026-05-07 22:05 | 39.69304 | -77.94618 | 21459 ft | 501 kts | 48° |
| 2026-05-07 22:05 | 39.71367 | -77.91059 | 20558 ft | 485 kts | 49° |
| 2026-05-07 22:06 | 39.73382 | -77.87576 | 19645 ft | 478 kts | 49° |
| 2026-05-07 22:06 | 39.75366 | -77.84152 | 18754 ft | 470 kts | 49° |
| 2026-05-07 22:06 | 39.77321 | -77.80781 | 17802 ft | 463 kts | 49° |
| 2026-05-07 22:06 | 39.79263 | -77.77442 | 17023 ft | 462 kts | 49° |
| 2026-05-07 22:07 | 39.81223 | -77.74146 | 16281 ft | 459 kts | 47° |
| 2026-05-07 22:07 | 39.83216 | -77.70975 | 15515 ft | 458 kts | 46° |
| 2026-05-07 22:07 | 39.85280 | -77.67810 | 14725 ft | 456 kts | 46° |
| 2026-05-07 22:07 | 39.87350 | -77.64683 | 13972 ft | 454 kts | 46° |
| 2026-05-07 22:08 | 39.89408 | -77.61570 | 13184 ft | 451 kts | 46° |
| 2026-05-07 22:08 | 39.91431 | -77.58481 | 12468 ft | 442 kts | 47° |
| 2026-05-07 22:08 | 39.93356 | -77.55496 | 11743 ft | 418 kts | 47° |
| 2026-05-07 22:08 | 39.95236 | -77.52748 | 11192 ft | 391 kts | 41° |
| 2026-05-07 22:09 | 39.97091 | -77.50343 | 10977 ft | 361 kts | 42° |
| 2026-05-07 22:09 | 39.98776 | -77.48133 | 10842 ft | 334 kts | 42° |
| 2026-05-07 22:09 | 40.00371 | -77.46040 | 10551 ft | 317 kts | 42° |
| 2026-05-07 22:09 | 40.01909 | -77.44033 | 10304 ft | 309 kts | 42° |
| 2026-05-07 22:10 | 40.03425 | -77.42062 | 10063 ft | 305 kts | 42° |
| 2026-05-07 22:10 | 40.04919 | -77.40114 | 9905 ft | 301 kts | 42° |
| 2026-05-07 22:10 | 40.06399 | -77.38187 | 9780 ft | 300 kts | 42° |
| 2026-05-07 22:10 | 40.07858 | -77.36291 | 9644 ft | 298 kts | 42° |
| 2026-05-07 22:11 | 40.09327 | -77.34378 | 9507 ft | 297 kts | 42° |
| 2026-05-07 22:11 | 40.10789 | -77.32469 | 9372 ft | 297 kts | 43° |
| 2026-05-07 22:11 | 40.12248 | -77.30555 | 9213 ft | 297 kts | 43° |
| 2026-05-07 22:11 | 40.13713 | -77.28640 | 8697 ft | 296 kts | 43° |
| 2026-05-07 22:12 | 40.15157 | -77.26752 | 8217 ft | 291 kts | 43° |
| 2026-05-07 22:12 | 40.16578 | -77.24893 | 7724 ft | 287 kts | 43° |
| 2026-05-07 22:12 | 40.17970 | -77.23071 | 7244 ft | 285 kts | 42° |
| 2026-05-07 22:12 | 40.19362 | -77.21245 | 6762 ft | 281 kts | 43° |
| 2026-05-07 22:13 | 40.20747 | -77.19421 | 6278 ft | 283 kts | 42° |
| 2026-05-07 22:13 | 40.22133 | -77.17599 | 5829 ft | 282 kts | 43° |
| 2026-05-07 22:13 | 40.23505 | -77.15795 | 5337 ft | 276 kts | 43° |
| 2026-05-07 22:13 | 40.24850 | -77.14025 | 4823 ft | 272 kts | 43° |
| 2026-05-07 22:14 | 40.26159 | -77.12299 | 4569 ft | 256 kts | 43° |
| 2026-05-07 22:14 | 40.27355 | -77.10721 | 4505 ft | 233 kts | 42° |
| 2026-05-07 22:14 | 40.28473 | -77.09236 | 4420 ft | 224 kts | 45° |
| 2026-05-07 22:14 | 40.29273 | -77.07585 | 4350 ft | 211 kts | 66° |
| 2026-05-07 22:15 | 40.29584 | -77.05810 | 4265 ft | 190 kts | 84° |
| 2026-05-07 22:15 | 40.29491 | -77.04213 | 4168 ft | 164 kts | 102° |
| 2026-05-07 22:15 | 40.29159 | -77.02831 | 4087 ft | 157 kts | 109° |
| 2026-05-07 22:15 | 40.28830 | -77.01470 | 4018 ft | 157 kts | 109° |
| 2026-05-07 22:16 | 40.28436 | -77.00152 | 3960 ft | 158 kts | 113° |
| 2026-05-07 22:16 | 40.27979 | -76.98833 | 3847 ft | 159 kts | 115° |
| 2026-05-07 22:16 | 40.27498 | -76.97528 | 3666 ft | 159 kts | 116° |
| 2026-05-07 22:16 | 40.27013 | -76.96246 | 3470 ft | 156 kts | 116° |
| 2026-05-07 22:17 | 40.26526 | -76.94970 | 3257 ft | 156 kts | 117° |
| 2026-05-07 22:17 | 40.26040 | -76.93701 | 3050 ft | 156 kts | 117° |
| 2026-05-07 22:17 | 40.25562 | -76.92457 | 2848 ft | 153 kts | 117° |
| 2026-05-07 22:17 | 40.25086 | -76.91219 | 2642 ft | 151 kts | 117° |
| 2026-05-07 22:18 | 40.24610 | -76.89982 | 2440 ft | 153 kts | 118° |
| 2026-05-07 22:18 | 40.23651 | -76.87492 | 2004 ft | 152 kts | 116° |
| 2026-05-07 22:18 | 40.23175 | -76.86255 | 1796 ft | 151 kts | 118° |
| 2026-05-07 22:19 | 40.22703 | -76.85029 | 1600 ft | 150 kts | 117° |
| 2026-05-07 22:19 | 40.22236 | -76.83819 | 1397 ft | 149 kts | 118° |
| 2026-05-07 22:19 | 40.21771 | -76.82613 | 1205 ft | 149 kts | 117° |
| 2026-05-07 22:19 | 40.21307 | -76.81412 | 994 ft | 147 kts | 117° |
| 2026-05-07 22:20 | 40.20848 | -76.80224 | 809 ft | 145 kts | 118° |
| 2026-05-07 22:20 | 40.20399 | -76.79059 | 624 ft | 142 kts | 118° |
| 2026-05-07 22:20 | 40.19961 | -76.77907 | 409 ft | 140 kts | 118° |
| 2026-05-07 22:20 | 40.19531 | -76.76796 | 317 ft | 127 kts | 117° |
| 2026-05-07 22:21 | 40.19198 | -76.75952 | 314 ft | 79 kts | 117° |
| 2026-05-07 22:21 | 40.19027 | -76.75498 | 309 ft | 42 kts | 117° |
| 2026-05-07 22:21 | 40.18922 | -76.75217 | 308 ft | 19 kts | 110° |
| 2026-05-07 22:21 | 40.18967 | -76.75104 | 307 ft | 12 kts | 33° |
| 2026-05-07 22:22 | 40.19039 | -76.75063 | 308 ft | 11 kts | 24° |
| 2026-05-07 22:22 | 40.19105 | -76.75024 | 309 ft | 10 kts | 22° |
| 2026-05-07 22:22 | 40.19179 | -76.75034 | 309 ft | 15 kts | 326° |
| 2026-05-07 22:22 | 40.19245 | -76.75149 | 312 ft | 17 kts | 305° |
| 2026-05-07 22:23 | 40.19319 | -76.75264 | 311 ft | 14 kts | 320° |
| 2026-05-07 22:23 | 40.19397 | -76.75236 | 312 ft | 11 kts | 26° |
| 2026-05-07 22:23 | 40.19461 | -76.75241 | 313 ft | 8 kts | 333° |
| 2026-05-07 22:23 | 40.19499 | -76.75279 | 314 ft | 5 kts | 311° |
| 2026-05-07 22:24 | 40.19508 | -76.75315 | 314 ft | 3 kts | 276° |
| 2026-05-07 22:24 | 40.19507 | -76.75359 | 314 ft | 5 kts | 264° |
| 2026-05-07 22:24 | 40.19508 | -76.75396 | 314 ft | 3 kts | 283° |
| 2026-05-07 22:24 | 40.19509 | -76.75405 | 314 ft | 0 kts | 283° |